createdAt,value
2018-12-18T00:00:12.227Z,0
2018-12-18T00:01:10.775Z,0
2018-12-18T00:02:09.342Z,0
2018-12-18T00:03:07.885Z,0
2018-12-18T00:04:06.421Z,0
2018-12-18T00:05:04.980Z,0
2018-12-18T00:06:04.012Z,0
2018-12-18T00:07:02.547Z,0
2018-12-18T00:08:01.164Z,0
2018-12-18T00:08:59.953Z,0
2018-12-18T00:09:58.470Z,0
2018-12-18T00:10:57.013Z,0
2018-12-18T00:11:59.226Z,0
2018-12-18T00:12:54.073Z,0
2018-12-18T00:13:52.611Z,0
2018-12-18T00:14:51.160Z,0
2018-12-18T00:15:50.116Z,0
2018-12-18T00:16:48.665Z,0
2018-12-18T00:17:47.560Z,0
2018-12-18T00:18:46.096Z,0
2018-12-18T00:19:44.663Z,0
2018-12-18T00:20:43.165Z,0
2018-12-18T00:21:41.707Z,0
2018-12-18T00:22:40.236Z,0
2018-12-18T00:23:38.784Z,0
2018-12-18T00:24:37.821Z,0
2018-12-18T00:25:36.382Z,0
2018-12-18T00:26:35.072Z,0
2018-12-18T00:27:33.670Z,0
2018-12-18T00:28:32.196Z,0
2018-12-18T00:29:30.768Z,0
2018-12-18T00:30:29.316Z,0
2018-12-18T00:31:27.847Z,0
2018-12-18T00:32:26.338Z,0
2018-12-18T00:33:24.900Z,0
2018-12-18T00:34:23.420Z,0
2018-12-18T00:35:22.069Z,0
2018-12-18T00:36:20.615Z,0
2018-12-18T00:37:19.474Z,0
2018-12-18T00:38:18.154Z,0
2018-12-18T00:39:16.691Z,0
2018-12-18T00:40:15.344Z,0
2018-12-18T00:41:32.643Z,0
2018-12-18T00:42:31.171Z,0
2018-12-18T00:43:29.984Z,0
2018-12-18T00:44:28.463Z,0
2018-12-18T00:45:27.192Z,0
2018-12-18T00:46:25.945Z,0
2018-12-18T00:47:24.499Z,0
2018-12-18T00:48:23.029Z,0
2018-12-18T00:49:21.637Z,0
2018-12-18T00:50:20.124Z,0
2018-12-18T00:51:18.648Z,0
2018-12-18T00:52:17.178Z,0
2018-12-18T00:53:15.718Z,0
2018-12-18T00:54:14.274Z,0
2018-12-18T00:55:12.839Z,0
2018-12-18T00:56:11.828Z,0
2018-12-18T00:57:10.361Z,0
2018-12-18T00:58:08.912Z,0
2018-12-18T00:59:07.681Z,0
2018-12-18T01:00:06.237Z,0
2018-12-18T01:01:04.771Z,0
2018-12-18T01:02:03.301Z,0
2018-12-18T01:03:01.820Z,0
2018-12-18T01:04:00.380Z,0
2018-12-18T01:04:58.930Z,0
2018-12-18T01:05:57.817Z,0
2018-12-18T01:06:56.368Z,0
2018-12-18T01:07:55.053Z,0
2018-12-18T01:08:53.808Z,0
2018-12-18T01:09:52.337Z,0
2018-12-18T01:10:50.918Z,0
2018-12-18T01:11:49.505Z,0
2018-12-18T01:12:48.027Z,0
2018-12-18T01:13:46.549Z,0
2018-12-18T01:14:45.110Z,0
2018-12-18T01:15:43.919Z,0
2018-12-18T01:16:42.459Z,0
2018-12-18T01:17:41.167Z,0
2018-12-18T01:18:39.954Z,0
2018-12-18T01:19:38.477Z,0
2018-12-18T01:20:37.003Z,0
2018-12-18T01:21:35.596Z,0
2018-12-18T01:22:34.175Z,0
2018-12-18T01:23:32.705Z,0
2018-12-18T01:24:31.254Z,0
2018-12-18T01:25:29.786Z,0
2018-12-18T01:26:28.314Z,0
2018-12-18T01:27:26.858Z,0
2018-12-18T01:28:25.854Z,0
2018-12-18T01:29:24.379Z,0
2018-12-18T01:30:22.905Z,0
2018-12-18T01:31:21.750Z,0
2018-12-18T01:32:20.277Z,0
2018-12-18T01:33:18.798Z,0
2018-12-18T01:34:17.339Z,0
2018-12-18T01:35:15.900Z,0
2018-12-18T01:36:14.448Z,0
2018-12-18T01:37:12.977Z,0
2018-12-18T01:38:11.647Z,0
2018-12-18T01:39:10.288Z,0
2018-12-18T01:40:08.834Z,0
2018-12-18T01:41:07.571Z,0
2018-12-18T01:42:06.163Z,0
2018-12-18T01:43:04.716Z,0
2018-12-18T01:44:03.459Z,0
2018-12-18T01:45:02.032Z,0
2018-12-18T01:46:00.590Z,0
2018-12-18T01:46:59.122Z,0
2018-12-18T01:47:57.651Z,0
2018-12-18T01:48:56.199Z,0
2018-12-18T01:49:54.739Z,0
2018-12-18T01:50:53.741Z,0
2018-12-18T01:53:34.084Z,0
2018-12-18T01:54:32.635Z,0
2018-12-18T01:55:31.610Z,0
2018-12-18T01:56:30.162Z,0
2018-12-18T01:57:28.688Z,0
2018-12-18T01:58:27.567Z,0
2018-12-18T01:59:26.094Z,0
2018-12-18T02:00:24.663Z,0
2018-12-18T02:01:23.203Z,0
2018-12-18T02:02:21.737Z,0
2018-12-18T02:03:20.276Z,0
2018-12-18T02:04:18.799Z,0
2018-12-18T02:05:17.417Z,0
2018-12-18T02:06:16.335Z,0
2018-12-18T02:07:14.855Z,0
2018-12-18T02:08:13.708Z,0
2018-12-18T02:09:12.266Z,0
2018-12-18T02:10:10.825Z,0
2018-12-18T02:11:09.345Z,0
2018-12-18T02:12:07.885Z,0
2018-12-18T02:13:06.410Z,0
2018-12-18T02:14:04.963Z,0
2018-12-18T02:15:03.781Z,0
2018-12-18T02:16:02.430Z,0
2018-12-18T02:17:01.079Z,0
2018-12-18T02:17:59.864Z,0
2018-12-18T02:18:58.372Z,0
2018-12-18T02:19:56.925Z,0
2018-12-18T02:20:55.457Z,0
2018-12-18T02:21:54.008Z,0
2018-12-18T02:22:52.574Z,0
2018-12-18T02:23:51.123Z,0
2018-12-18T02:24:49.709Z,0
2018-12-18T02:25:48.241Z,0
2018-12-18T02:26:46.803Z,0
2018-12-18T02:27:45.746Z,0
2018-12-18T02:28:44.319Z,0
2018-12-18T02:29:42.995Z,0
2018-12-18T02:30:41.680Z,0
2018-12-18T02:31:40.223Z,0
2018-12-18T02:32:38.776Z,0
2018-12-18T02:33:37.420Z,0
2018-12-18T02:34:36.067Z,0
2018-12-18T02:35:34.613Z,0
2018-12-18T02:36:33.333Z,0
2018-12-18T02:37:32.029Z,0
2018-12-18T02:38:30.577Z,0
2018-12-18T02:39:29.266Z,0
2018-12-18T02:40:27.816Z,0
2018-12-18T02:41:26.358Z,0
2018-12-18T02:42:24.902Z,0
2018-12-18T02:43:23.472Z,0
2018-12-18T02:44:22.096Z,0
2018-12-18T02:45:20.623Z,0
2018-12-18T02:46:19.327Z,0
2018-12-18T02:47:17.971Z,0
2018-12-18T02:50:56.868Z,0
2018-12-18T02:51:55.409Z,0
2018-12-18T02:52:53.977Z,0
2018-12-18T02:53:52.619Z,0
2018-12-18T02:54:51.166Z,0
2018-12-18T02:55:49.962Z,0
2018-12-18T02:56:48.486Z,0
2018-12-18T02:57:47.137Z,0
2018-12-18T02:58:46.065Z,0
2018-12-18T02:59:44.592Z,0
2018-12-18T03:00:43.120Z,0
2018-12-18T03:01:41.693Z,0
2018-12-18T03:02:40.217Z,0
2018-12-18T03:03:38.800Z,0
2018-12-18T03:04:37.626Z,0
2018-12-18T03:05:36.193Z,0
2018-12-18T03:06:34.730Z,0
2018-12-18T03:07:33.651Z,0
2018-12-18T03:11:22.655Z,0
2018-12-18T03:12:21.365Z,0
2018-12-18T03:13:19.920Z,0
2018-12-18T03:14:18.550Z,0
2018-12-18T03:15:17.072Z,0
2018-12-18T03:16:15.891Z,0
2018-12-18T03:17:14.450Z,0
2018-12-18T03:18:13.066Z,0
2018-12-18T03:19:11.898Z,0
2018-12-18T03:20:10.444Z,0
2018-12-18T03:21:08.960Z,0
2018-12-18T03:22:07.510Z,0
2018-12-18T03:23:06.033Z,0
2018-12-18T03:24:04.582Z,0
2018-12-18T03:25:03.129Z,0
2018-12-18T03:26:01.666Z,0
2018-12-18T03:27:00.240Z,0
2018-12-18T03:27:58.821Z,0
2018-12-18T03:28:57.841Z,0
2018-12-18T03:29:56.310Z,0
2018-12-18T03:30:57.402Z,0
2018-12-18T03:31:53.631Z,0
2018-12-18T03:32:52.178Z,0
2018-12-18T03:33:50.702Z,0
2018-12-18T03:34:49.253Z,0
2018-12-18T03:35:47.837Z,0
2018-12-18T03:36:46.387Z,0
2018-12-18T03:37:44.910Z,0
2018-12-18T03:38:43.925Z,0
2018-12-18T03:39:42.471Z,0
2018-12-18T03:40:41.079Z,0
2018-12-18T03:41:39.819Z,0
2018-12-18T03:42:38.362Z,0
2018-12-18T03:43:36.903Z,0
2018-12-18T03:44:35.484Z,0
2018-12-18T03:45:34.134Z,0
2018-12-18T03:49:12.891Z,0
2018-12-18T03:50:11.826Z,0
2018-12-18T03:51:10.382Z,0
2018-12-18T03:52:08.949Z,0
2018-12-18T03:53:07.521Z,0
2018-12-18T03:54:06.074Z,0
2018-12-18T03:55:04.637Z,0
2018-12-18T03:56:03.208Z,0
2018-12-18T03:57:01.969Z,0
2018-12-18T03:58:00.564Z,0
2018-12-18T03:58:59.226Z,0
2018-12-18T03:59:58.045Z,0
2018-12-18T04:00:56.814Z,0
2018-12-18T04:01:55.683Z,0
2018-12-18T04:02:54.260Z,0
2018-12-18T04:03:52.794Z,0
2018-12-18T04:04:51.559Z,0
2018-12-18T04:05:50.100Z,0
2018-12-18T04:06:48.618Z,0
2018-12-18T04:07:47.174Z,0
2018-12-18T04:08:45.708Z,0
2018-12-18T04:09:44.275Z,0
2018-12-18T04:10:42.790Z,0
2018-12-18T04:11:41.557Z,0
2018-12-18T04:12:40.199Z,0
2018-12-18T04:13:38.796Z,0
2018-12-18T04:14:37.401Z,0
2018-12-18T04:15:36.072Z,0
2018-12-18T04:16:34.600Z,0
2018-12-18T04:17:33.259Z,0
2018-12-18T04:18:31.807Z,0
2018-12-18T04:19:30.382Z,0
2018-12-18T04:20:28.910Z,0
2018-12-18T04:21:27.487Z,0
2018-12-18T04:22:26.173Z,0
2018-12-18T04:23:24.701Z,0
2018-12-18T04:24:23.539Z,0
2018-12-18T04:25:22.255Z,0
2018-12-18T04:26:20.815Z,0
2018-12-18T04:27:19.470Z,0
2018-12-18T04:28:18.014Z,0
2018-12-18T04:29:16.547Z,0
2018-12-18T04:30:15.125Z,0
2018-12-18T04:31:13.891Z,0
2018-12-18T04:32:12.482Z,0
2018-12-18T04:33:11.241Z,0
2018-12-18T04:34:10.031Z,0
2018-12-18T04:35:08.597Z,0
2018-12-18T04:36:07.137Z,0
2018-12-18T04:37:05.664Z,0
2018-12-18T04:38:04.197Z,0
2018-12-18T04:39:02.745Z,0
2018-12-18T04:40:01.293Z,0
2018-12-18T04:40:59.825Z,0
2018-12-18T04:41:58.457Z,0
2018-12-18T04:42:57.050Z,0
2018-12-18T04:43:55.871Z,0
2018-12-18T04:44:54.422Z,0
2018-12-18T04:45:52.920Z,0
2018-12-18T04:46:51.672Z,0
2018-12-18T04:47:50.209Z,0
2018-12-18T04:48:48.744Z,0
2018-12-18T04:49:47.293Z,0
2018-12-18T04:50:45.856Z,0
2018-12-18T04:51:44.403Z,0
2018-12-18T04:52:42.939Z,0
2018-12-18T04:53:41.490Z,0
2018-12-18T04:54:40.217Z,0
2018-12-18T04:55:38.779Z,0
2018-12-18T04:56:37.584Z,0
2018-12-18T04:57:36.247Z,0
2018-12-18T04:58:34.777Z,0
2018-12-18T04:59:33.451Z,0
2018-12-18T05:00:31.996Z,0
2018-12-18T05:01:30.560Z,0
2018-12-18T05:02:29.108Z,0
2018-12-18T05:03:27.647Z,0
2018-12-18T05:04:26.446Z,0
2018-12-18T05:05:25.044Z,0
2018-12-18T05:06:23.763Z,0
2018-12-18T05:07:22.303Z,0
2018-12-18T05:08:20.855Z,0
2018-12-18T05:09:19.579Z,0
2018-12-18T05:10:18.189Z,0
2018-12-18T05:11:16.747Z,0
2018-12-18T05:12:15.284Z,0
2018-12-18T05:13:13.813Z,0
2018-12-18T05:14:12.358Z,0
2018-12-18T05:15:10.876Z,0
2018-12-18T05:16:09.643Z,0
2018-12-18T05:17:08.256Z,0
2018-12-18T05:18:06.795Z,0
2018-12-18T05:19:05.458Z,0
2018-12-18T05:20:04.191Z,0
2018-12-18T05:21:02.714Z,0
2018-12-18T05:22:01.364Z,0
2018-12-18T05:22:59.909Z,0
2018-12-18T05:23:58.441Z,0
2018-12-18T05:24:56.969Z,0
2018-12-18T05:25:55.540Z,0
2018-12-18T05:26:54.059Z,0
2018-12-18T05:27:52.571Z,0
2018-12-18T05:28:51.116Z,0
2018-12-18T05:29:49.969Z,0
2018-12-18T05:30:48.518Z,0
2018-12-18T05:31:47.188Z,0
2018-12-18T05:32:45.992Z,0
2018-12-18T05:33:44.520Z,0
2018-12-18T05:34:43.040Z,0
2018-12-18T05:35:41.619Z,0
2018-12-18T05:36:40.117Z,0
2018-12-18T05:37:38.663Z,0
2018-12-18T05:38:37.192Z,0
2018-12-18T05:39:35.724Z,0
2018-12-18T05:40:34.281Z,0
2018-12-18T05:41:32.823Z,0
2018-12-18T05:42:31.847Z,0
2018-12-18T05:43:30.389Z,0
2018-12-18T05:44:28.997Z,0
2018-12-18T05:45:27.757Z,0
2018-12-18T05:46:26.291Z,0
2018-12-18T05:47:24.844Z,0
2018-12-18T05:48:23.376Z,0
2018-12-18T05:49:21.916Z,0
2018-12-18T05:50:20.471Z,0
2018-12-18T05:51:18.996Z,0
2018-12-18T05:54:18.700Z,0
2018-12-18T05:55:17.447Z,0
2018-12-18T05:56:16.132Z,0
2018-12-18T05:57:14.672Z,0
2018-12-18T05:58:13.324Z,0
2018-12-18T05:59:11.933Z,0
2018-12-18T06:00:10.431Z,0
2018-12-18T06:01:08.973Z,0
2018-12-18T06:02:07.509Z,0
2018-12-18T06:03:06.071Z,0
2018-12-18T06:04:04.619Z,0
2018-12-18T06:05:03.572Z,0
2018-12-18T06:06:02.010Z,0
2018-12-18T06:07:00.711Z,0
2018-12-18T06:07:59.432Z,0
2018-12-18T06:08:58.074Z,0
2018-12-18T06:09:56.626Z,0
2018-12-18T06:10:55.164Z,0
2018-12-18T06:11:53.763Z,0
2018-12-18T06:12:52.342Z,0
2018-12-18T06:13:50.880Z,0
2018-12-18T06:14:49.815Z,0
2018-12-18T06:15:48.350Z,0
2018-12-18T06:16:46.921Z,0
2018-12-18T06:17:45.690Z,0
2018-12-18T06:18:44.233Z,0
2018-12-18T06:19:42.758Z,0
2018-12-18T06:20:41.312Z,0
2018-12-18T06:21:39.846Z,0
2018-12-18T06:22:38.423Z,0
2018-12-18T06:23:36.987Z,0
2018-12-18T06:24:35.903Z,0
2018-12-18T06:25:34.431Z,0
2018-12-18T06:26:32.975Z,0
2018-12-18T06:27:31.798Z,0
2018-12-18T06:28:30.354Z,0
2018-12-18T06:29:28.872Z,0
2018-12-18T06:30:27.442Z,0
2018-12-18T06:31:25.991Z,0
2018-12-18T06:32:24.601Z,0
2018-12-18T06:33:23.066Z,0
2018-12-18T06:34:22.018Z,0
2018-12-18T06:35:20.541Z,0
2018-12-18T06:36:19.405Z,0
2018-12-18T06:37:17.978Z,0
2018-12-18T06:38:16.488Z,0
2018-12-18T06:39:15.050Z,0
2018-12-18T06:40:13.588Z,0
2018-12-18T06:41:12.134Z,0
2018-12-18T06:42:10.647Z,0
2018-12-18T06:43:09.209Z,4
2018-12-18T06:44:07.763Z,0
2018-12-18T06:45:06.354Z,4
2018-12-18T06:46:04.898Z,4
2018-12-18T06:47:03.761Z,4
2018-12-18T06:48:02.269Z,4
2018-12-18T06:49:00.821Z,4
2018-12-18T06:49:59.642Z,4
2018-12-18T06:50:58.168Z,8
2018-12-18T06:51:56.721Z,8
2018-12-18T06:52:55.232Z,8
2018-12-18T06:53:53.792Z,8
2018-12-18T06:54:52.328Z,12
2018-12-18T06:55:50.909Z,16
2018-12-18T06:56:49.428Z,16
2018-12-18T06:57:48.191Z,16
2018-12-18T06:58:46.745Z,24
2018-12-18T06:59:45.487Z,24
2018-12-18T07:00:44.291Z,28
2018-12-18T07:01:42.846Z,32
2018-12-18T07:02:41.909Z,36
2018-12-18T07:03:40.519Z,40
2018-12-18T07:04:39.068Z,48
2018-12-18T07:05:37.886Z,48
2018-12-18T07:06:36.460Z,56
2018-12-18T07:07:35.019Z,64
2018-12-18T07:08:33.708Z,72
2018-12-18T07:09:32.454Z,80
2018-12-18T07:12:12.840Z,104
2018-12-18T07:13:11.427Z,112
2018-12-18T07:14:09.964Z,124
2018-12-18T07:15:08.494Z,136
2018-12-18T07:16:13.924Z,148
2018-12-18T07:17:12.487Z,160
2018-12-18T07:18:11.009Z,172
2018-12-18T07:19:09.927Z,184
2018-12-18T07:20:08.531Z,200
2018-12-18T07:21:07.091Z,212
2018-12-18T07:22:05.904Z,224
2018-12-18T07:23:04.423Z,240
2018-12-18T07:24:02.971Z,252
2018-12-18T07:25:01.582Z,264
2018-12-18T07:26:00.151Z,280
2018-12-18T07:26:58.683Z,300
2018-12-18T07:27:57.288Z,312
2018-12-18T07:28:56.124Z,332
2018-12-18T07:29:54.640Z,348
2018-12-18T07:30:53.280Z,364
2018-12-18T07:31:52.042Z,380
2018-12-18T07:32:50.614Z,396
2018-12-18T07:33:49.146Z,412
2018-12-18T07:34:47.718Z,428
2018-12-18T07:35:46.252Z,444
2018-12-18T07:36:44.799Z,460
2018-12-18T07:37:43.504Z,436
2018-12-18T07:38:42.265Z,452
2018-12-18T07:39:40.854Z,464
2018-12-18T07:40:39.679Z,488
2018-12-18T07:41:38.215Z,504
2018-12-18T07:42:36.793Z,544
2018-12-18T07:43:35.377Z,568
2018-12-18T07:44:34.034Z,588
2018-12-18T07:45:32.640Z,600
2018-12-18T07:46:31.431Z,616
2018-12-18T07:47:30.102Z,632
2018-12-18T07:48:28.648Z,648
2018-12-18T07:49:27.444Z,668
2018-12-18T07:50:26.035Z,684
2018-12-18T07:51:24.609Z,712
2018-12-18T07:52:23.119Z,736
2018-12-18T07:53:21.941Z,756
2018-12-18T07:54:20.453Z,780
2018-12-18T07:55:19.200Z,800
2018-12-18T07:56:17.959Z,820
2018-12-18T07:57:16.579Z,812
2018-12-18T07:58:15.191Z,836
2018-12-18T07:59:13.715Z,872
2018-12-18T08:00:12.562Z,808
2018-12-18T08:01:11.243Z,844
2018-12-18T08:02:10.026Z,840
2018-12-18T08:03:08.624Z,852
2018-12-18T08:04:07.178Z,876
2018-12-18T08:05:05.779Z,880
2018-12-18T08:06:04.356Z,888
2018-12-18T08:07:02.861Z,896
2018-12-18T08:08:01.826Z,908
2018-12-18T08:09:00.350Z,920
2018-12-18T08:09:58.972Z,928
2018-12-18T08:10:57.795Z,940
2018-12-18T08:11:56.345Z,900
2018-12-18T08:12:54.976Z,904
2018-12-18T08:13:53.893Z,900
2018-12-18T08:16:34.047Z,952
2018-12-18T08:17:32.611Z,984
2018-12-18T08:18:31.214Z,992
2018-12-18T08:19:29.767Z,996
2018-12-18T08:20:28.344Z,1004
2018-12-18T08:21:26.901Z,1008
2018-12-18T08:22:25.972Z,972
2018-12-18T08:23:24.538Z,964
2018-12-18T08:24:23.260Z,980
2018-12-18T08:25:21.788Z,1000
2018-12-18T08:26:20.334Z,1028
2018-12-18T08:27:18.916Z,1052
2018-12-18T08:28:17.453Z,1068
2018-12-18T08:29:15.994Z,1076
2018-12-18T08:30:14.556Z,1080
2018-12-18T08:31:13.098Z,1088
2018-12-18T08:32:11.942Z,1092
2018-12-18T08:34:51.987Z,1116
2018-12-18T08:35:50.580Z,1124
2018-12-18T08:36:49.229Z,1084
2018-12-18T08:37:47.907Z,1096
2018-12-18T08:38:46.459Z,1092
2018-12-18T08:39:44.967Z,1112
2018-12-18T08:40:43.510Z,1124
2018-12-18T08:41:42.063Z,1152
2018-12-18T08:42:41.426Z,1168
2018-12-18T08:45:03.867Z,1184
2018-12-18T08:46:02.418Z,1188
2018-12-18T08:47:00.973Z,1196
2018-12-18T08:47:59.529Z,1200
2018-12-18T08:48:58.063Z,1208
2018-12-18T08:49:57.361Z,1212
2018-12-18T08:50:55.957Z,1224
2018-12-18T08:51:54.477Z,1228
2018-12-18T08:52:53.038Z,1228
2018-12-18T08:53:51.613Z,1236
2018-12-18T08:54:50.161Z,1176
2018-12-18T08:55:48.874Z,1232
2018-12-18T08:56:47.727Z,1216
2018-12-18T08:57:46.266Z,1224
2018-12-18T08:58:44.814Z,1256
2018-12-18T08:59:43.543Z,1264
2018-12-18T09:00:42.124Z,1272
2018-12-18T09:01:40.651Z,1280
2018-12-18T09:02:39.192Z,1284
2018-12-18T09:03:37.726Z,1288
2018-12-18T09:04:36.224Z,1292
2018-12-18T09:05:34.807Z,1296
2018-12-18T09:06:33.336Z,1304
2018-12-18T09:07:31.912Z,1308
2018-12-18T09:08:30.427Z,1312
2018-12-18T09:09:29.040Z,1320
2018-12-18T09:10:27.961Z,1320
2018-12-18T09:11:26.537Z,1324
2018-12-18T09:12:25.275Z,1316
2018-12-18T09:13:23.822Z,1320
2018-12-18T09:14:22.363Z,1332
2018-12-18T09:15:20.924Z,1336
2018-12-18T09:16:19.476Z,1340
2018-12-18T09:17:18.077Z,1348
2018-12-18T09:18:16.638Z,1352
2018-12-18T09:19:15.200Z,1352
2018-12-18T09:20:14.041Z,1360
2018-12-18T09:21:12.589Z,1364
2018-12-18T09:22:11.244Z,1372
2018-12-18T09:23:10.017Z,1376
2018-12-18T09:24:08.547Z,1380
2018-12-18T09:25:07.092Z,1384
2018-12-18T09:26:05.622Z,1388
2018-12-18T09:27:04.203Z,1392
2018-12-18T09:28:02.787Z,1396
2018-12-18T09:29:01.339Z,1404
2018-12-18T09:30:00.184Z,1408
2018-12-18T09:30:58.735Z,1412
2018-12-18T09:31:57.579Z,1416
2018-12-18T09:32:56.278Z,1424
2018-12-18T09:33:54.825Z,1428
2018-12-18T09:34:53.495Z,1432
2018-12-18T09:35:52.248Z,1440
2018-12-18T09:36:50.857Z,1448
2018-12-18T09:37:49.758Z,1452
2018-12-18T09:38:48.288Z,1460
2018-12-18T09:39:46.829Z,1468
2018-12-18T09:40:45.401Z,1472
2018-12-18T09:41:44.020Z,1476
2018-12-18T09:42:42.521Z,1484
2018-12-18T09:43:41.007Z,1492
2018-12-18T09:44:40.111Z,1500
2018-12-18T09:45:38.679Z,1484
2018-12-18T09:46:37.323Z,1440
2018-12-18T09:47:35.912Z,1464
2018-12-18T09:48:34.487Z,1460
2018-12-18T09:49:33.059Z,1484
2018-12-18T09:50:31.923Z,1496
2018-12-18T09:51:30.500Z,1548
2018-12-18T09:52:29.158Z,1552
2018-12-18T09:53:27.998Z,1556
2018-12-18T09:54:26.544Z,1552
2018-12-18T09:55:25.208Z,1548
2018-12-18T09:56:24.025Z,1528
2018-12-18T09:57:22.588Z,1544
2018-12-18T09:58:23.332Z,1540
2018-12-18T09:59:22.026Z,1548
2018-12-18T10:00:20.635Z,1544
2018-12-18T10:01:19.196Z,1548
2018-12-18T10:02:18.112Z,1556
2018-12-18T10:03:16.682Z,1560
2018-12-18T10:04:15.313Z,1564
2018-12-18T10:05:14.038Z,1580
2018-12-18T10:06:12.602Z,1596
2018-12-18T10:07:11.121Z,1608
2018-12-18T10:08:09.680Z,1620
2018-12-18T10:09:09.671Z,1624
2018-12-18T10:10:06.781Z,1636
2018-12-18T10:11:05.457Z,1644
2018-12-18T10:12:04.800Z,1640
2018-12-18T10:13:02.794Z,1648
2018-12-18T10:14:01.698Z,1656
2018-12-18T10:15:00.329Z,1652
2018-12-18T10:15:58.975Z,1652
2018-12-18T10:16:57.924Z,1648
2018-12-18T10:17:56.494Z,1656
2018-12-18T10:18:55.076Z,1656
2018-12-18T10:19:53.777Z,1648
2018-12-18T10:20:52.411Z,1648
2018-12-18T10:21:50.987Z,1648
2018-12-18T10:22:50.043Z,1648
2018-12-18T10:23:48.648Z,1652
2018-12-18T10:24:47.375Z,1648
2018-12-18T10:25:45.989Z,1640
2018-12-18T10:26:44.571Z,1624
2018-12-18T10:27:43.148Z,1608
2018-12-18T10:28:41.942Z,1620
2018-12-18T10:29:40.541Z,1640
2018-12-18T10:30:39.100Z,1648
2018-12-18T10:31:38.003Z,1656
2018-12-18T10:32:36.585Z,1668
2018-12-18T10:33:35.126Z,1684
2018-12-18T10:34:33.675Z,1700
2018-12-18T10:35:36.571Z,1720
2018-12-18T10:36:30.854Z,1744
2018-12-18T10:37:29.717Z,1756
2018-12-18T10:38:28.421Z,1760
2018-12-18T10:39:26.969Z,1788
2018-12-18T10:40:25.624Z,1804
2018-12-18T10:41:24.163Z,1804
2018-12-18T10:42:22.690Z,1796
2018-12-18T10:43:21.351Z,1800
2018-12-18T10:44:20.315Z,1816
2018-12-18T10:45:18.841Z,1828
2018-12-18T10:46:17.770Z,1836
2018-12-18T10:47:16.277Z,1856
2018-12-18T10:48:14.820Z,1884
2018-12-18T10:49:13.379Z,1908
2018-12-18T10:50:11.909Z,1924
2018-12-18T10:51:10.793Z,1928
2018-12-18T10:52:09.449Z,1916
2018-12-18T10:53:08.203Z,1900
2018-12-18T10:54:06.785Z,1896
2018-12-18T10:55:05.373Z,1908
2018-12-18T10:56:03.971Z,1912
2018-12-18T10:57:02.685Z,1924
2018-12-18T10:58:01.309Z,1936
2018-12-18T10:59:00.368Z,1948
2018-12-18T10:59:58.936Z,1956
2018-12-18T11:00:57.509Z,1964
2018-12-18T11:01:56.263Z,1972
2018-12-18T11:02:54.861Z,1976
2018-12-18T11:03:53.656Z,1968
2018-12-18T11:04:52.330Z,1964
2018-12-18T11:05:50.887Z,1960
2018-12-18T11:08:31.611Z,1928
2018-12-18T11:09:30.430Z,1912
2018-12-18T11:10:28.995Z,1888
2018-12-18T11:11:27.517Z,1872
2018-12-18T11:12:26.078Z,1860
2018-12-18T11:13:24.652Z,1852
2018-12-18T11:14:23.237Z,1840
2018-12-18T11:15:22.070Z,1832
2018-12-18T11:16:20.597Z,1824
2018-12-18T11:17:19.268Z,1820
2018-12-18T11:18:18.076Z,1816
2018-12-18T11:19:16.590Z,1804
2018-12-18T11:20:15.165Z,1792
2018-12-18T11:21:13.731Z,1788
2018-12-18T11:22:12.307Z,1780
2018-12-18T11:23:10.886Z,1772
2018-12-18T11:26:50.107Z,1768
2018-12-18T11:29:12.681Z,1772
2018-12-18T11:30:11.215Z,1772
2018-12-18T11:31:10.036Z,1772
2018-12-18T11:32:09.485Z,1776
2018-12-18T11:33:07.284Z,1772
2018-12-18T11:34:06.044Z,1772
2018-12-18T11:35:04.594Z,1768
2018-12-18T11:36:03.113Z,1772
2018-12-18T11:37:01.656Z,1768
2018-12-18T11:38:00.210Z,1768
2018-12-18T11:38:58.744Z,1776
2018-12-18T11:39:57.350Z,1784
2018-12-18T11:40:55.873Z,1792
2018-12-18T11:41:54.414Z,1796
2018-12-18T11:42:52.978Z,1800
2018-12-18T11:43:51.663Z,1804
2018-12-18T11:44:50.291Z,1800
2018-12-18T11:45:48.847Z,1816
2018-12-18T11:46:47.539Z,1832
2018-12-18T11:47:46.166Z,1832
2018-12-18T11:48:44.680Z,1840
2018-12-18T11:49:43.373Z,1860
2018-12-18T11:50:41.926Z,1860
2018-12-18T11:51:40.496Z,1860
2018-12-18T11:52:39.017Z,1852
2018-12-18T11:53:37.800Z,1852
2018-12-18T11:54:36.377Z,1852
2018-12-18T11:55:34.916Z,1860
2018-12-18T11:56:33.881Z,1868
2018-12-18T11:57:32.411Z,1868
2018-12-18T11:58:31.224Z,1868
2018-12-18T11:59:30.076Z,1884
2018-12-18T12:00:28.644Z,1888
2018-12-18T12:01:27.218Z,1888
2018-12-18T12:02:26.119Z,1900
2018-12-18T12:03:24.747Z,1908
2018-12-18T12:04:23.235Z,1920
2018-12-18T12:05:22.102Z,1940
2018-12-18T12:06:23.086Z,1960
2018-12-18T12:07:19.312Z,1980
2018-12-18T12:08:18.094Z,2000
2018-12-18T12:09:16.676Z,2024
2018-12-18T12:10:15.227Z,2044
2018-12-18T12:11:13.906Z,2068
2018-12-18T12:12:12.635Z,2100
2018-12-18T12:13:11.438Z,2124
2018-12-18T12:14:10.330Z,2156
2018-12-18T12:15:08.920Z,2180
2018-12-18T12:16:07.713Z,2192
2018-12-18T12:17:06.419Z,2196
2018-12-18T12:18:04.998Z,2184
2018-12-18T12:19:03.753Z,2172
2018-12-18T12:20:02.295Z,2172
2018-12-18T12:21:00.899Z,2184
2018-12-18T12:21:59.422Z,2216
2018-12-18T12:22:57.952Z,2252
2018-12-18T12:23:56.559Z,2276
2018-12-18T12:24:55.112Z,2300
2018-12-18T12:25:53.844Z,2332
2018-12-18T12:26:52.362Z,2356
2018-12-18T12:27:50.940Z,2376
2018-12-18T12:28:49.670Z,2396
2018-12-18T12:29:48.310Z,2420
2018-12-18T12:30:46.877Z,2444
2018-12-18T12:31:45.513Z,2464
2018-12-18T12:32:44.051Z,2480
2018-12-18T12:33:42.657Z,2492
2018-12-18T12:34:41.168Z,2508
2018-12-18T12:35:39.853Z,2524
2018-12-18T12:36:38.787Z,2532
2018-12-18T12:37:37.251Z,2556
2018-12-18T12:38:36.077Z,2572
2018-12-18T12:39:34.634Z,2584
2018-12-18T12:40:33.230Z,2596
2018-12-18T12:41:31.723Z,2600
2018-12-18T12:42:30.253Z,2608
2018-12-18T12:43:28.878Z,2604
2018-12-18T12:44:27.409Z,2600
2018-12-18T12:45:26.324Z,2604
2018-12-18T12:46:24.880Z,2616
2018-12-18T12:47:25.626Z,2632
2018-12-18T12:48:24.201Z,2648
2018-12-18T12:49:22.724Z,2648
2018-12-18T12:50:21.347Z,2652
2018-12-18T12:51:19.899Z,2652
2018-12-18T12:52:18.421Z,2652
2018-12-18T12:53:16.983Z,2660
2018-12-18T12:54:16.019Z,2664
2018-12-18T12:55:14.590Z,2684
2018-12-18T12:56:13.166Z,2688
2018-12-18T12:57:11.765Z,2696
2018-12-18T12:58:10.324Z,2700
2018-12-18T12:59:08.850Z,2700
2018-12-18T13:00:07.453Z,2704
2018-12-18T13:01:06.027Z,2700
2018-12-18T13:02:04.542Z,2688
2018-12-18T13:03:03.103Z,2684
2018-12-18T13:04:02.159Z,2684
2018-12-18T13:05:00.669Z,2688
2018-12-18T13:05:59.416Z,2692
2018-12-18T13:06:58.044Z,2692
2018-12-18T13:07:56.648Z,2688
2018-12-18T13:08:55.187Z,2680
2018-12-18T13:09:53.784Z,2668
2018-12-18T13:10:52.427Z,2648
2018-12-18T13:11:50.956Z,2628
2018-12-18T13:12:49.894Z,2608
2018-12-18T13:13:48.512Z,2580
2018-12-18T13:14:47.124Z,2564
2018-12-18T13:15:45.724Z,2536
2018-12-18T13:16:44.278Z,2516
2018-12-18T13:17:42.836Z,2496
2018-12-18T13:18:41.329Z,2480
2018-12-18T13:19:39.972Z,2460
2018-12-18T13:20:38.631Z,2444
2018-12-18T13:21:37.135Z,2424
2018-12-18T13:22:36.015Z,2396
2018-12-18T13:23:34.552Z,2372
2018-12-18T13:24:33.262Z,2348
2018-12-18T13:25:31.806Z,2320
2018-12-18T13:26:30.374Z,2296
2018-12-18T13:27:28.909Z,2272
2018-12-18T13:28:27.543Z,2244
2018-12-18T13:29:26.424Z,2208
2018-12-18T13:30:25.740Z,2168
2018-12-18T13:31:24.408Z,2128
2018-12-18T13:32:23.007Z,2104
2018-12-18T13:33:21.892Z,2084
2018-12-18T13:34:20.394Z,2072
2018-12-18T13:35:18.925Z,2076
2018-12-18T13:36:17.484Z,2076
2018-12-18T13:37:16.096Z,2072
2018-12-18T13:38:14.627Z,2064
2018-12-18T13:39:13.165Z,2052
2018-12-18T13:40:12.178Z,2048
2018-12-18T13:41:10.798Z,2036
2018-12-18T13:42:09.488Z,2028
2018-12-18T13:43:08.106Z,2016
2018-12-18T13:44:06.770Z,2004
2018-12-18T13:45:05.313Z,1988
2018-12-18T13:46:04.104Z,1976
2018-12-18T13:47:02.701Z,1964
2018-12-18T13:48:01.306Z,1956
2018-12-18T13:49:00.166Z,1948
2018-12-18T13:49:58.697Z,1932
2018-12-18T13:50:57.265Z,1908
2018-12-18T13:51:55.816Z,1892
2018-12-18T13:52:54.368Z,1884
2018-12-18T13:53:53.032Z,1876
2018-12-18T13:54:52.219Z,1872
2018-12-18T13:55:50.746Z,1864
2018-12-18T13:56:49.306Z,1848
2018-12-18T13:57:47.836Z,1828
2018-12-18T13:58:46.883Z,1812
2018-12-18T13:59:45.597Z,1800
2018-12-18T14:00:44.312Z,1792
2018-12-18T14:01:42.811Z,1780
2018-12-18T14:02:41.300Z,1776
2018-12-18T14:03:39.910Z,1764
2018-12-18T14:04:38.456Z,1752
2018-12-18T14:05:37.005Z,1736
2018-12-18T14:06:35.520Z,1724
2018-12-18T14:07:34.036Z,1712
2018-12-18T14:08:32.572Z,1696